Lakeland, Florida
Current Conditions -  °F | °C
As of 2:50 PM on Monday 22 Dec 2014 (Local Time) from KLAL Reporting Station
Overcast Overcast  
Wind Chill: 79°   Ceiling: 2800
Heat Index: 81°   Visibility: 12mi
Dew Point: 70°   Wind: 6mph
Humidity: 74%   Direction: 180°S
Pressure: 29.92"   Gusts: NA
Location:  28.04°N, 81.95°W
Report Text: KLAL 221950Z 18005KT 12SM BKN028 OVC043 26/21 A2992
Loading
Personal Weather Stations






























Interactive Weather Map New forecast layout! Learn more

10-Day Weather Forecast

Advertisements
Track Severe Weather on mobile